createdAt,value
2019-01-19T19:16:50.302Z,30.72
2019-01-19T19:19:22.555Z,31.29
2019-01-19T19:21:54.820Z,30.67
2019-01-19T19:24:27.049Z,30.03
2019-01-19T19:26:59.426Z,32.70
2019-01-19T19:29:31.860Z,30.70
2019-01-19T19:32:04.092Z,30.18
2019-01-19T19:34:37.310Z,30.29
2019-01-19T19:37:09.402Z,30.39
2019-01-19T19:39:41.643Z,30.02
2019-01-19T19:42:13.830Z,29.87
2019-01-19T19:44:47.309Z,29.83
2019-01-19T19:47:19.412Z,30.27
2019-01-19T19:49:52.283Z,29.64
2019-01-19T19:52:19.868Z,29.60
2019-01-19T19:54:49.463Z,29.58
2019-01-19T19:57:15.890Z,29.69
2019-01-19T19:59:42.246Z,29.31
2019-01-19T20:02:08.791Z,29.31
2019-01-19T20:04:35.205Z,29.60
2019-01-19T20:07:05.343Z,29.43
2019-01-19T20:09:32.788Z,29.12
2019-01-19T20:12:01.290Z,29.55
2019-01-19T20:14:27.659Z,28.96
2019-01-19T20:16:54.374Z,29.01
2019-01-19T20:19:21.169Z,29.35
2019-01-19T20:21:48.286Z,29.34
2019-01-19T20:24:14.685Z,29.39
2019-01-19T20:26:41.064Z,29.23
2019-01-19T20:29:07.964Z,29.34
2019-01-19T20:31:35.761Z,29.40
2019-01-19T20:34:02.165Z,29.77
2019-01-19T20:36:28.569Z,29.66
2019-01-19T20:38:55.011Z,29.92
2019-01-19T20:41:21.600Z,29.94
2019-01-19T20:43:48.285Z,30.18
2019-01-19T20:46:14.810Z,30.23
2019-01-19T20:48:43.118Z,30.47
2019-01-19T20:51:09.564Z,30.30
2019-01-19T20:53:36.022Z,30.59
2019-01-19T20:56:03.484Z,30.66
2019-01-19T20:58:29.874Z,30.65
2019-01-19T21:00:56.507Z,30.79
2019-01-19T21:03:22.938Z,30.83
2019-01-19T21:05:50.878Z,30.88
2019-01-19T21:08:17.328Z,31.30
2019-01-19T21:10:44.614Z,31.16
2019-01-19T21:13:11.021Z,31.20
2019-01-19T21:15:37.548Z,31.39
2019-01-19T21:18:04.651Z,31.31
2019-01-19T21:20:31.250Z,31.17
2019-01-19T21:22:57.707Z,31.15
2019-01-19T21:25:26.472Z,31.43
2019-01-19T21:27:53.135Z,31.34
2019-01-19T21:30:19.690Z,31.40
2019-01-19T21:32:46.486Z,31.19
2019-01-19T21:35:13.060Z,31.16
2019-01-19T21:37:39.447Z,31.57
2019-01-19T21:40:10.203Z,31.23
2019-01-19T21:42:36.933Z,31.09
2019-01-19T21:45:09.751Z,31.15
2019-01-19T21:47:36.340Z,31.64
2019-01-19T21:50:05.814Z,31.70
2019-01-19T21:52:32.372Z,31.78
2019-01-19T21:55:00.803Z,31.87
2019-01-19T21:57:27.330Z,31.79
2019-01-19T21:59:53.985Z,31.61
2019-01-19T22:02:20.680Z,31.55
2019-01-19T22:04:47.665Z,31.63
2019-01-19T22:07:15.673Z,31.53
2019-01-19T22:09:42.171Z,31.66
2019-01-19T22:12:09.776Z,31.60
2019-01-19T22:14:36.274Z,31.79
2019-01-19T22:17:02.880Z,31.69
2019-01-19T22:19:29.455Z,31.85
2019-01-19T22:21:55.949Z,31.84
2019-01-19T22:24:23.004Z,31.93
2019-01-19T22:26:53.426Z,31.76
2019-01-19T22:29:20.072Z,32.02
2019-01-19T22:31:46.763Z,32.23
2019-01-19T22:34:13.189Z,32.34
2019-01-19T22:36:39.813Z,31.16
2019-01-19T22:39:06.748Z,30.97
2019-01-19T22:41:33.170Z,30.77
2019-01-19T22:43:59.685Z,31.07
2019-01-19T22:46:26.143Z,30.80
2019-01-19T22:48:52.615Z,30.53
2019-01-19T22:51:19.111Z,30.82
2019-01-19T22:53:46.047Z,30.51
2019-01-19T22:56:12.446Z,30.32
2019-01-19T22:58:38.876Z,30.40
2019-01-19T23:01:11.039Z,30.15
2019-01-19T23:03:37.592Z,30.48
2019-01-19T23:06:04.168Z,30.38
2019-01-19T23:08:33.592Z,30.94
2019-01-19T23:11:01.230Z,30.12
2019-01-19T23:13:28.100Z,30.99
2019-01-19T23:15:54.523Z,30.62
2019-01-19T23:18:20.943Z,30.81
2019-01-19T23:20:47.796Z,30.73
2019-01-19T23:23:14.330Z,30.89
2019-01-19T23:25:41.510Z,30.81
2019-01-19T23:28:08.026Z,30.90
2019-01-19T23:30:34.672Z,30.75
2019-01-19T23:33:01.235Z,30.80
2019-01-19T23:35:27.819Z,31.00
2019-01-19T23:37:54.226Z,30.77
2019-01-19T23:40:20.602Z,30.54
2019-01-19T23:42:47.554Z,30.77
2019-01-19T23:45:14.068Z,30.57
2019-01-19T23:47:40.633Z,30.63
2019-01-19T23:50:12.054Z,30.72
2019-01-19T23:52:38.476Z,30.65
2019-01-19T23:55:05.643Z,30.57
2019-01-19T23:57:32.177Z,30.37
2019-01-19T23:59:58.703Z,30.49
